Airfield :
LOGIN :

Register | Disclaimer

   EN    FR    IT 

 










Legend :    VFR   Marginal VFR   IFR   Intensive IFR   Very Intensive IFR
Visi :
Ceiling :
>= 8 km
>= 3000ft
5 to 8 km
1000 to 3000 ft
1500m to 5 km
500 to 1000 ft
800 to 1500m
200 to 500 ft
< 800m
< 200 ft
Symbols :   Thunderstorms  Fog  Heavy snow  Heavy precipitations  Wind > 20 kt
SIGMETs :     Misc.  Thunderstorms  Icing  Turbulence  Mountain Waves  Volcanic Ashes






- Airport Elevation : 505 ft
- IATA code : SXB


LFST - Strasbourg

CURRENT METAR :
  • 152100Z AUTO 19004KT 9999 SCT036 BKN048 BKN054 09/07 Q1011 TEMPO 4000 RA FEW030TCU BKN040

EXPIRED METARs :
  • 152030Z AUTO 17005KT 9999 BKN041 BKN052 OVC070 09/07 Q1010 TEMPO 4000 RA FEW030TCU BKN040
  • 152000Z AUTO 21005KT 9999 OVC042 09/07 Q1011 TEMPO 4000 RA FEW030TCU BKN040
  • 151930Z AUTO 20005KT 9999 FEW040/// OVC049/// ///TCU 09/07 Q1011 TEMPO 4000 RA
  • 151900Z AUTO 20006KT 9999 BKN050/// OVC062/// ///CB 10/07 Q1011 TEMPO 4000 RA
  • 151830Z AUTO 21008KT 9999 BKN048/// OVC054/// ///TCU 09/07 Q1011 TEMPO 4000 RA

TAF TAF LFST
Valid from the 15 at 18:00 until the 16 at 18:00 UTC


151700Z 1518/1618 19008KT 9999 -RA BKN035
PROB30
TEMPO 1518/1524 4000 RA FEW030TCU BKN040
BECMG 1600/1602 CAVOK



MET'MAP, your aeronautical weather chart ! - Copyright ORBIFLY December 2007 - Disclaimer

ORBIFLY MET'MAP TEAM :

Programming & Development : Alexandra Zaïnal
Concept & original design : Baudouin d'Aumeries
Assistance for programming : Marc-Olivier Méhu
Technical & hardware support : Manuel Goepfert

Contact : metmap@orbifly.com




SOURCES & CREDITS :

   NOAA